This is the latest recevied weather packets stored in our database for station/object eb1ayw-13. If no packets are shown the sender has not sent any weather packets the latest 10 day(s).
| Time | Temp. | Humidity | Pressure | Rain* | Wind** | Luminosity | Snow |
|---|---|---|---|---|---|---|---|
| 1777269545 | 30.56° C | 29% | 1011 hPa | - | - | - | - |
| 1777268945 | 31.67° C | 29% | 1010.8 hPa | - | - | - | - |
| 1777268344 | 35° C | 25% | 1009.8 hPa | - | - | - | - |
| 1777267745 | 34.44° C | 25% | 1009.9 hPa | - | - | - | - |
| 1777267145 | 34.44° C | 25% | 1010 hPa | - | - | - | - |
| 1777266545 | 34.44° C | 26% | 1010 hPa | - | - | - | - |
| 1777265945 | 34.44° C | 26% | 1009.9 hPa | - | - | - | - |
| 1777265345 | 34.44° C | 25% | 1009.9 hPa | - | - | - | - |
| 1777264745 | 34.44° C | 25% | 1009.9 hPa | - | - | - | - |
| 1777264145 | 33.33° C | 28% | 1010.3 hPa | - | - | - | - |
| 1777263545 | 31.67° C | 29% | 1010.8 hPa | - | - | - | - |
| 1777262945 | 32.22° C | 29% | 1010.6 hPa | - | - | - | - |
| 1777262344 | 32.78° C | 27% | 1010.4 hPa | - | - | - | - |
| 1777261745 | 32.78° C | 27% | 1010.3 hPa | - | - | - | - |
| 1777261144 | 36.67° C | 23% | 1009.5 hPa | - | - | - | - |
| 1777260544 | 33.89° C | 27% | 1010.3 hPa | - | - | - | - |
| 1777259945 | 36.11° C | 24% | 1009.7 hPa | - | - | - | - |
| 1777259345 | 32.78° C | 28% | 1010.6 hPa | - | - | - | - |
| 1777258745 | 34.44° C | 26% | 1010.1 hPa | - | - | - | - |
| 1777258145 | 36.67° C | 23% | 1009.6 hPa | - | - | - | - |
| 1777255745 | 30.56° C | 30% | 1011.3 hPa | - | - | - | - |
* Rain since midnight (hover to see other rain measurements)
** Current wind speed in m/s (hover to see current wind gust speed)